Time;durP1;ratioP1;P1;durP2;ratioP2;P2;SDS_P1;SDS_P2;PMS_P1;PMS_P2;Temp;Humidity;BMP_temperature;BMP_pressure;BME280_temperature;BME280_humidity;BME280_pressure;Samples;Min_cycle;Max_cycle;Signal;HPM_P1;HPM_P2
2021/08/22 00:00:13;;;;;;;16.98;11.25;;;;;;;;;;5036032;28;20109;-60
2021/08/22 00:02:39;;;;;;;16.63;11.07;;;;;;;;;;5033994;28;20025;-60
2021/08/22 00:05:05;;;;;;;16.85;11.27;;;;;;;;;;5035172;28;20056;-60
2021/08/22 00:07:31;;;;;;;20.85;11.88;;;;;;;;;;5033882;28;20140;-59
2021/08/22 00:09:57;;;;;;;17.30;11.57;;;;;;;;;;5034966;28;20029;-59
2021/08/22 00:12:23;;;;;;;16.92;10.85;;;;;;;;;;5035503;28;20116;-59
2021/08/22 00:14:49;;;;;;;20.55;12.25;;;;;;;;;;5034189;28;20642;-59
2021/08/22 00:17:15;;;;;;;16.88;11.30;;;;;;;;;;5034879;28;20097;-60
2021/08/22 00:19:41;;;;;;;17.73;12.02;;;;;;;;;;5035103;28;20027;-59
2021/08/22 00:22:08;;;;;;;14.13;10.35;;;;;;;;;;5035126;28;20473;-59
2021/08/22 00:24:33;;;;;;;25.30;12.15;;;;;;;;;;5035210;28;20091;-59
2021/08/22 00:26:59;;;;;;;22.13;12.27;;;;;;;;;;5034994;28;20029;-59
2021/08/22 00:29:25;;;;;;;19.85;11.88;;;;;;;;;;5033316;28;20117;-60
2021/08/22 00:31:51;;;;;;;17.35;12.07;;;;;;;;;;5032757;28;20116;-59
2021/08/22 00:34:17;;;;;;;20.27;12.32;;;;;;;;;;5033848;28;20105;-60
2021/08/22 00:36:43;;;;;;;19.52;11.93;;;;;;;;;;5035266;28;20026;-59
2021/08/22 00:39:09;;;;;;;19.42;12.52;;;;;;;;;;5035095;28;20071;-59
2021/08/22 00:41:36;;;;;;;21.30;12.35;;;;;;;;;;5033227;28;20037;-59
2021/08/22 00:44:02;;;;;;;23.83;12.43;;;;;;;;;;5033770;28;20028;-59
2021/08/22 00:46:28;;;;;;;19.05;12.80;;;;;;;;;;5033606;28;20026;-59
2021/08/22 00:48:54;;;;;;;23.70;13.02;;;;;;;;;;5034770;28;20046;-59
2021/08/22 00:51:20;;;;;;;21.90;12.60;;;;;;;;;;5035030;28;20086;-59
2021/08/22 00:53:46;;;;;;;20.90;12.27;;;;;;;;;;5032199;28;20036;-59
2021/08/22 00:56:13;;;;;;;16.58;11.45;;;;;;;;;;5034779;28;20021;-59
2021/08/22 00:58:39;;;;;;;17.70;12.10;;;;;;;;;;5034927;28;20392;-59
2021/08/22 01:01:06;;;;;;;20.75;12.20;;;;;;;;;;5032848;28;20013;-58
2021/08/22 01:03:32;;;;;;;20.40;12.38;;;;;;;;;;5034653;28;20504;-58
2021/08/22 01:06:01;;;;;;;18.50;11.95;;;;;;;;;;5018334;28;20089;-58
2021/08/22 01:08:32;;;;;;;16.92;10.38;;;;;;;;;;5028158;28;20041;-66
2021/08/22 01:11:02;;;;;;;17.83;11.65;;;;;;;;;;5032889;28;20030;-66
2021/08/22 01:13:29;;;;;;;19.85;12.13;;;;;;;;;;5033176;28;20025;-66
2021/08/22 01:15:57;;;;;;;21.23;12.52;;;;;;;;;;5034261;28;20022;-66
2021/08/22 01:18:24;;;;;;;19.85;13.07;;;;;;;;;;5034348;28;20061;-66
2021/08/22 01:21:09;;;;;;;19.10;12.80;;;;;;;;;;5031989;28;20044;-64
2021/08/22 01:23:36;;;;;;;22.80;13.63;;;;;;;;;;5028954;28;20397;-66
2021/08/22 01:26:02;;;;;;;20.15;13.68;;;;;;;;;;5033146;28;20150;-66
2021/08/22 01:28:29;;;;;;;21.10;13.02;;;;;;;;;;5034249;28;20464;-64
2021/08/22 01:30:58;;;;;;;26.73;13.05;;;;;;;;;;5033931;28;20083;-64
2021/08/22 01:33:24;;;;;;;20.38;12.63;;;;;;;;;;5034029;28;20037;-64
2021/08/22 01:35:51;;;;;;;20.77;12.85;;;;;;;;;;5032805;28;20033;-67
2021/08/22 01:38:17;;;;;;;19.08;11.82;;;;;;;;;;5032894;28;20100;-66
2021/08/22 01:40:43;;;;;;;19.48;13.48;;;;;;;;;;5034119;28;20029;-66
2021/08/22 01:43:11;;;;;;;20.20;12.82;;;;;;;;;;5033795;28;20055;-66
2021/08/22 01:45:37;;;;;;;18.52;12.43;;;;;;;;;;5033416;28;20052;-64
2021/08/22 01:48:05;;;;;;;20.25;13.13;;;;;;;;;;5034112;28;20037;-66
2021/08/22 01:50:32;;;;;;;17.23;12.13;;;;;;;;;;5031333;28;20386;-66
2021/08/22 01:53:01;;;;;;;21.67;13.55;;;;;;;;;;5032193;28;20092;-66
2021/08/22 01:55:27;;;;;;;23.55;14.00;;;;;;;;;;5033983;28;20087;-66
2021/08/22 01:57:53;;;;;;;21.52;13.55;;;;;;;;;;5033526;28;20052;-66
2021/08/22 02:00:19;;;;;;;20.00;12.95;;;;;;;;;;5033293;28;20021;-66
2021/08/22 02:03:04;;;;;;;19.88;13.43;;;;;;;;;;5032425;28;20037;-66
2021/08/22 02:05:30;;;;;;;20.25;13.45;;;;;;;;;;5027835;28;20477;-65
2021/08/22 02:07:56;;;;;;;22.75;13.15;;;;;;;;;;5033661;28;20041;-66
2021/08/22 02:10:26;;;;;;;19.73;13.20;;;;;;;;;;5033800;28;20053;-66
2021/08/22 02:12:55;;;;;;;23.95;13.32;;;;;;;;;;5033638;28;20345;-65
2021/08/22 02:15:26;;;;;;;21.35;13.18;;;;;;;;;;5033676;28;20026;-65
2021/08/22 02:18:06;;;;;;;20.60;12.63;;;;;;;;;;5032309;28;20036;-65
2021/08/22 02:20:33;;;;;;;23.05;12.88;;;;;;;;;;5027591;28;20041;-65
2021/08/22 02:22:59;;;;;;;18.70;12.02;;;;;;;;;;5032215;28;20021;-65
2021/08/22 02:25:31;;;;;;;17.45;11.70;;;;;;;;;;5033355;28;20128;-65
2021/08/22 02:27:58;;;;;;;19.40;12.45;;;;;;;;;;5033170;28;20041;-65
2021/08/22 02:30:24;;;;;;;21.88;12.65;;;;;;;;;;5031815;28;20554;-65
2021/08/22 02:32:51;;;;;;;21.45;13.02;;;;;;;;;;5032046;28;20420;-65
2021/08/22 02:35:17;;;;;;;21.02;13.35;;;;;;;;;;5036693;28;20029;-65
2021/08/22 02:37:43;;;;;;;20.27;11.82;;;;;;;;;;5037325;28;20477;-65
2021/08/22 02:40:09;;;;;;;23.70;13.10;;;;;;;;;;5037259;28;20114;-65
2021/08/22 02:42:35;;;;;;;19.25;12.02;;;;;;;;;;5042124;28;20107;-65
2021/08/22 02:45:01;;;;;;;22.02;12.45;;;;;;;;;;5037243;28;20060;-65
2021/08/22 02:47:27;;;;;;;21.05;12.57;;;;;;;;;;5034810;28;20025;-65
2021/08/22 02:49:53;;;;;;;16.52;12.55;;;;;;;;;;5037063;28;20044;-65
2021/08/22 02:52:19;;;;;;;20.63;12.02;;;;;;;;;;5036893;28;20052;-65
2021/08/22 02:54:45;;;;;;;16.77;11.82;;;;;;;;;;5036713;28;20065;-65
2021/08/22 02:57:11;;;;;;;18.85;11.82;;;;;;;;;;5037269;28;20025;-65
2021/08/22 02:59:37;;;;;;;18.98;12.00;;;;;;;;;;5034859;28;20014;-65
2021/08/22 03:02:03;;;;;;;17.48;11.98;;;;;;;;;;5037041;28;20527;-66
2021/08/22 03:04:29;;;;;;;19.42;11.68;;;;;;;;;;5036475;28;20029;-65
2021/08/22 03:06:55;;;;;;;19.45;12.57;;;;;;;;;;5041955;28;20091;-65
2021/08/22 03:09:21;;;;;;;16.45;10.52;;;;;;;;;;5035488;28;20037;-65
2021/08/22 03:11:47;;;;;;;19.13;11.52;;;;;;;;;;5034972;28;20025;-65
2021/08/22 03:14:13;;;;;;;18.27;9.48;;;;;;;;;;5035778;28;20025;-65
2021/08/22 03:16:39;;;;;;;14.25;9.45;;;;;;;;;;5036781;28;20026;-65
2021/08/22 03:19:05;;;;;;;9.98;6.75;;;;;;;;;;5036216;28;20082;-65
2021/08/22 03:21:31;;;;;;;14.15;7.53;;;;;;;;;;5042004;28;20040;-65
2021/08/22 03:23:57;;;;;;;10.60;5.85;;;;;;;;;;5036156;28;20026;-65
2021/08/22 03:26:23;;;;;;;16.65;10.20;;;;;;;;;;5034303;28;20050;-65
2021/08/22 03:28:49;;;;;;;16.15;10.43;;;;;;;;;;5036114;28;20389;-65
2021/08/22 03:31:15;;;;;;;16.38;10.27;;;;;;;;;;5036471;28;20013;-65
2021/08/22 03:33:41;;;;;;;19.20;11.00;;;;;;;;;;5036079;28;20026;-64
2021/08/22 03:36:07;;;;;;;21.55;11.02;;;;;;;;;;5034957;28;20397;-65
2021/08/22 03:38:33;;;;;;;17.27;10.88;;;;;;;;;;5033798;28;20029;-65
2021/08/22 03:40:59;;;;;;;17.73;10.85;;;;;;;;;;5036269;28;20076;-64
2021/08/22 03:43:26;;;;;;;20.90;11.32;;;;;;;;;;5035946;28;20473;-64
2021/08/22 03:45:52;;;;;;;20.85;11.40;;;;;;;;;;5035112;28;20067;-64
2021/08/22 03:48:18;;;;;;;19.58;11.85;;;;;;;;;;5034492;28;20896;-64
2021/08/22 03:50:44;;;;;;;18.83;14.38;;;;;;;;;;5033874;28;20030;-64
2021/08/22 03:53:10;;;;;;;18.77;13.23;;;;;;;;;;5036111;28;20065;-64
2021/08/22 03:55:36;;;;;;;18.38;13.38;;;;;;;;;;5035667;28;20473;-64
2021/08/22 03:58:02;;;;;;;23.90;14.00;;;;;;;;;;5035597;28;20044;-64
2021/08/22 04:00:27;;;;;;;20.75;14.73;;;;;;;;;;5034385;28;20076;-65
2021/08/22 04:02:53;;;;;;;17.48;13.18;;;;;;;;;;5034972;28;20065;-64
2021/08/22 04:05:19;;;;;;;20.35;14.10;;;;;;;;;;5034736;28;20334;-65
2021/08/22 04:07:48;;;;;;;23.17;14.25;;;;;;;;;;5035277;28;20040;-66
2021/08/22 04:10:15;;;;;;;19.45;13.63;;;;;;;;;;5035717;28;20071;-66
2021/08/22 04:12:41;;;;;;;21.35;13.45;;;;;;;;;;5035029;28;20488;-66
2021/08/22 04:15:07;;;;;;;23.00;14.48;;;;;;;;;;5035520;28;20059;-64
2021/08/22 04:17:33;;;;;;;21.33;14.88;;;;;;;;;;5033299;28;20022;-64
2021/08/22 04:19:59;;;;;;;21.90;14.80;;;;;;;;;;5033915;28;20021;-64
2021/08/22 04:22:25;;;;;;;23.60;14.15;;;;;;;;;;5035491;28;20381;-64
2021/08/22 04:24:51;;;;;;;19.65;13.50;;;;;;;;;;5034861;28;20041;-66
2021/08/22 04:27:17;;;;;;;23.42;14.02;;;;;;;;;;5033886;28;20033;-66
2021/08/22 04:29:43;;;;;;;22.20;15.23;;;;;;;;;;5032902;28;20041;-66
2021/08/22 04:32:09;;;;;;;23.73;13.93;;;;;;;;;;5035248;28;20104;-66
2021/08/22 04:34:35;;;;;;;17.20;12.00;;;;;;;;;;5034830;28;20036;-66
2021/08/22 04:37:01;;;;;;;16.02;11.85;;;;;;;;;;5034847;28;20021;-66
2021/08/22 04:39:27;;;;;;;18.02;12.23;;;;;;;;;;5033651;28;20491;-66
2021/08/22 04:41:53;;;;;;;20.92;13.68;;;;;;;;;;5034261;28;20029;-66
2021/08/22 04:44:19;;;;;;;22.08;14.80;;;;;;;;;;5033633;28;20057;-66
2021/08/22 04:46:48;;;;;;;21.05;14.85;;;;;;;;;;5034951;28;20383;-66
2021/08/22 04:49:14;;;;;;;25.13;14.80;;;;;;;;;;5034894;28;20037;-66
2021/08/22 04:51:40;;;;;;;24.55;15.45;;;;;;;;;;5034585;28;20096;-66
2021/08/22 04:54:06;;;;;;;22.15;14.30;;;;;;;;;;5046594;28;20044;-66
2021/08/22 04:56:32;;;;;;;23.45;15.07;;;;;;;;;;5032332;28;20131;-66
2021/08/22 04:58:58;;;;;;;24.08;14.40;;;;;;;;;;5033064;28;20467;-65
2021/08/22 05:01:24;;;;;;;20.60;15.10;;;;;;;;;;5034699;28;20021;-66
2021/08/22 05:03:50;;;;;;;21.42;14.63;;;;;;;;;;5034468;28;20033;-66
2021/08/22 05:06:16;;;;;;;24.25;15.73;;;;;;;;;;5033057;28;20428;-66
2021/08/22 05:08:42;;;;;;;21.23;15.20;;;;;;;;;;5032230;28;20052;-66
2021/08/22 05:11:08;;;;;;;22.33;15.43;;;;;;;;;;5034147;28;20485;-66
2021/08/22 05:13:37;;;;;;;22.08;14.70;;;;;;;;;;5034477;28;20781;-66
2021/08/22 05:16:04;;;;;;;21.55;13.85;;;;;;;;;;5034201;28;20290;-65
2021/08/22 05:18:30;;;;;;;19.55;12.98;;;;;;;;;;5033207;28;20056;-65
2021/08/22 05:20:56;;;;;;;17.85;13.18;;;;;;;;;;5033620;28;20065;-65
2021/08/22 05:23:22;;;;;;;21.52;13.82;;;;;;;;;;5032031;28;20025;-66
2021/08/22 05:25:48;;;;;;;21.17;15.15;;;;;;;;;;5033985;28;20045;-66
2021/08/22 05:28:14;;;;;;;20.05;14.18;;;;;;;;;;5033848;28;20041;-66
2021/08/22 05:30:40;;;;;;;20.17;14.07;;;;;;;;;;5034248;28;20109;-66
2021/08/22 05:33:06;;;;;;;20.23;14.27;;;;;;;;;;5032985;28;20036;-66
2021/08/22 05:35:32;;;;;;;19.42;13.88;;;;;;;;;;5031535;28;20022;-66
2021/08/22 05:37:59;;;;;;;20.80;14.40;;;;;;;;;;5032334;28;20455;-66
2021/08/22 05:40:24;;;;;;;19.20;13.75;;;;;;;;;;5033912;28;20033;-66
2021/08/22 05:42:50;;;;;;;24.75;14.82;;;;;;;;;;5033630;28;20033;-65
2021/08/22 05:45:16;;;;;;;21.10;13.50;;;;;;;;;;5032893;28;20117;-65
2021/08/22 05:47:42;;;;;;;19.73;14.02;;;;;;;;;;5031631;28;20495;-65
2021/08/22 05:50:09;;;;;;;20.33;14.00;;;;;;;;;;5033673;28;20033;-66
2021/08/22 05:52:35;;;;;;;20.77;14.32;;;;;;;;;;5033442;28;20030;-65
2021/08/22 05:55:05;;;;;;;21.13;14.10;;;;;;;;;;5033495;28;20143;-65
2021/08/22 05:57:31;;;;;;;20.85;13.80;;;;;;;;;;5032429;28;20385;-65
2021/08/22 05:59:57;;;;;;;18.77;14.07;;;;;;;;;;5032856;28;20028;-66
2021/08/22 06:02:23;;;;;;;22.60;15.40;;;;;;;;;;5032209;28;20030;-66
2021/08/22 06:04:49;;;;;;;24.20;14.95;;;;;;;;;;5032247;28;20092;-65
2021/08/22 06:07:21;;;;;;;22.77;14.63;;;;;;;;;;5032533;28;20392;-66
2021/08/22 06:09:48;;;;;;;24.52;14.35;;;;;;;;;;5043014;28;20042;-66
2021/08/22 06:12:14;;;;;;;19.65;13.90;;;;;;;;;;5036287;28;20025;-67
2021/08/22 06:14:40;;;;;;;20.17;13.85;;;;;;;;;;5035737;28;20029;-68
2021/08/22 06:17:06;;;;;;;25.35;14.63;;;;;;;;;;5034866;28;20113;-67
2021/08/22 06:19:32;;;;;;;24.83;13.80;;;;;;;;;;5035628;28;20063;-68
2021/08/22 06:21:58;;;;;;;20.67;13.43;;;;;;;;;;5037022;28;20030;-68
2021/08/22 06:24:24;;;;;;;19.88;13.55;;;;;;;;;;5037359;28;20091;-68
2021/08/22 06:26:50;;;;;;;19.92;13.07;;;;;;;;;;5036118;28;20095;-68
2021/08/22 06:29:16;;;;;;;23.00;13.70;;;;;;;;;;5035059;28;20033;-69
2021/08/22 06:31:42;;;;;;;19.35;13.27;;;;;;;;;;5037169;28;20041;-69
2021/08/22 06:34:09;;;;;;;18.88;12.90;;;;;;;;;;5037599;28;20394;-68
2021/08/22 06:36:39;;;;;;;22.17;14.23;;;;;;;;;;5035991;28;20026;-68
2021/08/22 06:39:09;;;;;;;21.52;13.10;;;;;;;;;;5035809;28;20499;-69
2021/08/22 06:41:35;;;;;;;20.63;13.77;;;;;;;;;;5034911;28;20033;-71
2021/08/22 06:44:01;;;;;;;19.77;12.90;;;;;;;;;;5035254;28;20026;-68
2021/08/22 06:46:27;;;;;;;3.00;2.70;;;;;;;;;;5035744;28;20029;-68
2021/08/22 06:48:53;;;;;;;10.88;3.35;;;;;;;;;;5035310;28;20041;-68
2021/08/22 06:51:19;;;;;;;3.42;2.80;;;;;;;;;;5035386;28;20017;-68
2021/08/22 06:53:46;;;;;;;5.68;3.35;;;;;;;;;;5034252;28;20485;-66
2021/08/22 06:56:12;;;;;;;10.60;3.08;;;;;;;;;;5034810;28;20576;-67
2021/08/22 06:58:38;;;;;;;7.30;3.78;;;;;;;;;;5036274;28;20104;-67
2021/08/22 07:01:05;;;;;;;8.98;2.78;;;;;;;;;;5036689;28;20021;-67
2021/08/22 07:03:31;;;;;;;;;;;;;;;;;;5036095;28;20029;-67
2021/08/22 07:05:57;;;;;;;2.92;2.15;;;;;;;;;;5034662;28;20019;-67
2021/08/22 07:08:23;;;;;;;2.88;2.28;;;;;;;;;;5034710;28;20480;-69
2021/08/22 07:10:49;;;;;;;5.88;3.35;;;;;;;;;;5036285;28;20030;-65
2021/08/22 07:13:15;;;;;;;2.00;1.50;;;;;;;;;;5036799;28;20127;-66
2021/08/22 07:15:41;;;;;;;1.85;1.02;;;;;;;;;;5034839;28;20029;-65
2021/08/22 07:18:07;;;;;;;43.75;7.88;;;;;;;;;;5036855;28;20494;-66
2021/08/22 07:20:33;;;;;;;1.80;1.00;;;;;;;;;;5034233;28;20030;-65
2021/08/22 07:22:59;;;;;;;2.08;1.42;;;;;;;;;;5034672;28;20095;-65
2021/08/22 07:25:25;;;;;;;2.38;1.48;;;;;;;;;;5034949;28;20463;-65
2021/08/22 07:27:51;;;;;;;2.80;1.75;;;;;;;;;;5031661;28;20088;-65
2021/08/22 07:30:18;;;;;;;6.10;2.33;;;;;;;;;;5033415;28;20485;-65
2021/08/22 07:32:44;;;;;;;2.30;1.95;;;;;;;;;;5033741;28;20385;-65
2021/08/22 07:35:10;;;;;;;3.03;2.17;;;;;;;;;;5032264;28;20101;-65
2021/08/22 07:37:36;;;;;;;3.90;3.15;;;;;;;;;;5035390;28;20033;-65
2021/08/22 07:40:02;;;;;;;7.20;2.85;;;;;;;;;;5033668;28;20393;-64
2021/08/22 07:42:28;;;;;;;7.35;4.32;;;;;;;;;;5033903;28;20090;-65
2021/08/22 07:44:54;;;;;;;6.20;3.35;;;;;;;;;;5033789;28;20422;-67
2021/08/22 07:47:20;;;;;;;5.95;3.45;;;;;;;;;;5046915;28;20029;-65
2021/08/22 07:49:46;;;;;;;5.28;3.75;;;;;;;;;;5033909;28;20385;-65
2021/08/22 07:52:12;;;;;;;22.00;4.43;;;;;;;;;;5035021;28;20040;-64
2021/08/22 07:54:38;;;;;;;6.35;4.20;;;;;;;;;;5033671;28;20029;-64
2021/08/22 07:57:04;;;;;;;5.85;3.78;;;;;;;;;;5037901;28;20112;-64
2021/08/22 07:59:30;;;;;;;6.22;4.35;;;;;;;;;;5042466;28;20029;-65
2021/08/22 08:01:57;;;;;;;5.78;3.70;;;;;;;;;;5033112;28;20104;-64
2021/08/22 08:04:23;;;;;;;6.32;3.75;;;;;;;;;;5034001;28;20035;-65
2021/08/22 08:06:49;;;;;;;7.75;4.90;;;;;;;;;;5035195;28;20037;-65
2021/08/22 08:09:15;;;;;;;7.63;4.70;;;;;;;;;;5031564;28;20099;-65
2021/08/22 08:11:41;;;;;;;11.38;4.65;;;;;;;;;;5032189;28;20466;-64
2021/08/22 08:14:07;;;;;;;6.60;4.35;;;;;;;;;;5032244;28;20038;-65
2021/08/22 08:16:33;;;;;;;7.80;4.15;;;;;;;;;;5039453;28;20040;-65
2021/08/22 08:18:59;;;;;;;8.85;5.47;;;;;;;;;;5038359;28;20112;-65
2021/08/22 08:21:25;;;;;;;7.72;4.85;;;;;;;;;;5032431;28;20132;-65
2021/08/22 08:23:51;;;;;;;13.77;5.03;;;;;;;;;;5033384;28;20046;-65
2021/08/22 08:26:17;;;;;;;2.28;1.75;;;;;;;;;;5037932;28;20094;-65
2021/08/22 08:28:43;;;;;;;0.55;0.55;;;;;;;;;;5034889;28;20091;-66
2021/08/22 08:31:10;;;;;;;0.57;0.57;;;;;;;;;;5033781;28;20056;-65
2021/08/22 08:33:36;;;;;;;1.08;0.98;;;;;;;;;;5033832;28;20086;-67
2021/08/22 08:36:02;;;;;;;1.33;1.20;;;;;;;;;;5031985;28;20100;-66
2021/08/22 08:38:28;;;;;;;1.00;1.00;;;;;;;;;;5033637;28;20115;-67
2021/08/22 08:40:54;;;;;;;0.20;0.20;;;;;;;;;;5032659;28;20033;-67
2021/08/22 08:43:22;;;;;;;1.33;1.23;;;;;;;;;;5021939;28;20409;-67
2021/08/22 08:45:48;;;;;;;2.60;2.40;;;;;;;;;;5032738;28;20079;-67
2021/08/22 08:48:21;;;;;;;2.25;1.17;;;;;;;;;;5032562;28;20025;-67
2021/08/22 08:51:17;;;;;;;0.63;0.60;;;;;;;;;;5032779;28;20030;-66
2021/08/22 08:53:46;;;;;;;1.17;1.10;;;;;;;;;;5034986;28;20048;-67
2021/08/22 08:56:16;;;;;;;2.08;1.60;;;;;;;;;;5030882;28;20063;-66
2021/08/22 08:58:42;;;;;;;0.50;0.47;;;;;;;;;;5033430;28;20492;-67
2021/08/22 09:01:08;;;;;;;3.50;1.55;;;;;;;;;;5032899;28;20022;-67
2021/08/22 09:03:37;;;;;;;1.20;1.10;;;;;;;;;;5034553;28;20384;-67
2021/08/22 09:06:05;;;;;;;52.17;13.25;;;;;;;;;;5019553;28;20459;-66
2021/08/22 09:08:50;;;;;;;14.23;9.10;;;;;;;;;;5032331;28;20048;-67
2021/08/22 09:11:16;;;;;;;13.02;8.30;;;;;;;;;;5031247;28;20018;-67
2021/08/22 09:14:00;;;;;;;13.85;9.23;;;;;;;;;;5033888;28;20029;-67
2021/08/22 09:16:45;;;;;;;13.20;8.73;;;;;;;;;;5032961;28;20028;-67
2021/08/22 09:19:30;;;;;;;13.02;8.40;;;;;;;;;;5032910;28;20025;-67
2021/08/22 09:21:55;;;;;;;14.32;8.88;;;;;;;;;;5033036;28;20017;-67
2021/08/22 09:24:30;;;;;;;13.48;8.25;;;;;;;;;;5032699;28;21650;-67
2021/08/22 09:27:35;;;;;;;11.63;8.35;;;;;;;;;;5032324;28;20037;-67
2021/08/22 09:30:16;;;;;;;14.55;8.48;;;;;;;;;;5026571;28;20037;-67
2021/08/22 09:33:02;;;;;;;11.68;7.97;;;;;;;;;;5013037;28;20499;-64
2021/08/22 09:35:46;;;;;;;14.40;9.13;;;;;;;;;;5022912;28;20049;-66
2021/08/22 09:38:31;;;;;;;11.88;8.10;;;;;;;;;;5032582;28;20037;-64
2021/08/22 09:41:00;;;;;;;12.57;8.82;;;;;;;;;;5025567;28;20041;-65
2021/08/22 09:43:45;;;;;;;13.32;8.05;;;;;;;;;;5031944;28;20100;-64
2021/08/22 09:46:29;;;;;;;12.38;8.57;;;;;;;;;;5033521;28;20507;-64
2021/08/22 09:48:55;;;;;;;17.45;9.40;;;;;;;;;;5041494;28;20077;-66
2021/08/22 09:51:40;;;;;;;14.38;8.43;;;;;;;;;;5034018;28;20060;-67
2021/08/22 09:54:05;;;;;;;13.35;8.68;;;;;;;;;;5016964;28;20727;-67
2021/08/22 09:56:41;;;;;;;20.05;9.55;;;;;;;;;;5031604;28;20017;-67
2021/08/22 09:59:16;;;;;;;16.75;9.65;;;;;;;;;;5032639;28;20108;-67
2021/08/22 10:01:45;;;;;;;13.35;8.48;;;;;;;;;;5033709;28;20026;-66
2021/08/22 10:04:23;;;;;;;15.57;9.52;;;;;;;;;;5033486;28;20027;-67
2021/08/22 10:06:49;;;;;;;14.23;9.57;;;;;;;;;;5034185;28;20099;-66
2021/08/22 10:09:18;;;;;;;13.27;9.15;;;;;;;;;;5039257;28;20084;-65
2021/08/22 10:12:04;;;;;;;16.63;9.15;;;;;;;;;;5029087;28;20032;-67
2021/08/22 10:14:32;;;;;;;12.75;8.98;;;;;;;;;;5029703;28;20021;-66
2021/08/22 10:16:58;;;;;;;15.82;9.00;;;;;;;;;;5035132;28;20117;-65
2021/08/22 10:19:25;;;;;;;14.38;8.70;;;;;;;;;;5036211;28;20029;-64
2021/08/22 10:22:16;;;;;;;16.83;8.85;;;;;;;;;;5031787;28;20032;-64
2021/08/22 10:24:44;;;;;;;13.48;8.63;;;;;;;;;;5031450;28;20037;-64
2021/08/22 10:27:12;;;;;;;12.57;8.27;;;;;;;;;;5033512;28;20032;-63
2021/08/22 10:29:49;;;;;;;15.18;9.00;;;;;;;;;;5031450;28;20038;-63
2021/08/22 10:32:16;;;;;;;14.55;8.60;;;;;;;;;;5032685;28;20057;-63
2021/08/22 10:34:46;;;;;;;14.20;9.00;;;;;;;;;;5032254;28;20473;-64
2021/08/22 10:37:28;;;;;;;12.98;8.68;;;;;;;;;;5035055;28;20028;-65
2021/08/22 10:39:55;;;;;;;15.25;8.98;;;;;;;;;;5040276;28;20030;-65
2021/08/22 10:42:24;;;;;;;13.77;8.65;;;;;;;;;;5031560;28;20031;-65
2021/08/22 10:44:50;;;;;;;16.48;8.30;;;;;;;;;;5032311;28;20026;-66
2021/08/22 10:47:19;;;;;;;17.67;8.18;;;;;;;;;;5035333;28;20447;-65
2021/08/22 10:49:51;;;;;;;13.27;8.02;;;;;;;;;;5032422;28;20045;-67
2021/08/22 10:52:30;;;;;;;12.40;7.90;;;;;;;;;;5033214;28;20029;-68
2021/08/22 10:55:11;;;;;;;12.88;8.18;;;;;;;;;;5035814;28;20472;-67
2021/08/22 10:57:49;;;;;;;14.90;9.10;;;;;;;;;;5035078;28;20036;-68
2021/08/22 11:00:25;;;;;;;14.85;9.27;;;;;;;;;;5036852;28;20025;-68
2021/08/22 11:02:53;;;;;;;17.75;9.10;;;;;;;;;;5034927;28;20041;-65
2021/08/22 11:05:19;;;;;;;12.52;8.70;;;;;;;;;;5030504;28;20036;-68
2021/08/22 11:07:46;;;;;;;11.68;8.70;;;;;;;;;;5033030;28;20030;-67
2021/08/22 11:10:16;;;;;;;12.43;8.30;;;;;;;;;;5026942;28;20119;-67
2021/08/22 11:12:42;;;;;;;12.18;9.18;;;;;;;;;;5030033;28;20432;-68
2021/08/22 11:15:09;;;;;;;14.25;8.38;;;;;;;;;;5031227;28;20485;-67
2021/08/22 11:17:35;;;;;;;16.13;9.07;;;;;;;;;;5033823;28;20032;-68
2021/08/22 11:20:08;;;;;;;18.27;8.57;;;;;;;;;;5033953;28;20059;-68
2021/08/22 11:22:34;;;;;;;14.55;9.18;;;;;;;;;;5034350;28;20021;-71
2021/08/22 11:25:00;;;;;;;14.35;8.95;;;;;;;;;;5030669;28;20045;-69
2021/08/22 11:27:28;;;;;;;13.43;8.77;;;;;;;;;;5030532;28;20029;-69
2021/08/22 11:29:54;;;;;;;;;;;;;;;;;;5034078;28;20033;-70
2021/08/22 11:32:20;;;;;;;14.13;10.10;;;;;;;;;;5033930;28;19912;-71
2021/08/22 11:34:46;;;;;;;14.18;10.15;;;;;;;;;;5030814;28;20029;-70
2021/08/22 11:37:15;;;;;;;13.23;10.13;;;;;;;;;;5030638;28;20026;-69
2021/08/22 11:39:41;;;;;;;17.63;9.60;;;;;;;;;;5030622;28;20026;-72
2021/08/22 11:42:07;;;;;;;19.02;10.30;;;;;;;;;;5045305;28;20034;-69
2021/08/22 11:44:33;;;;;;;16.88;10.00;;;;;;;;;;5033613;28;20056;-70
2021/08/22 11:46:59;;;;;;;14.95;10.35;;;;;;;;;;5046419;28;20430;-68
2021/08/22 11:49:25;;;;;;;20.95;11.30;;;;;;;;;;5030658;28;20083;-69
2021/08/22 11:51:52;;;;;;;15.05;9.95;;;;;;;;;;5040988;28;20481;-69
2021/08/22 11:54:19;;;;;;;17.75;10.13;;;;;;;;;;5034537;28;20025;-70
2021/08/22 11:56:45;;;;;;;19.38;10.32;;;;;;;;;;5033678;28;20022;-71
2021/08/22 11:59:27;;;;;;;21.00;11.23;;;;;;;;;;5036063;28;20481;-69
2021/08/22 12:02:11;;;;;;;16.30;10.48;;;;;;;;;;5036639;28;20388;-69
2021/08/22 12:04:37;;;;;;;17.10;10.15;;;;;;;;;;5035298;28;20037;-68
2021/08/22 12:07:04;;;;;;;15.50;9.95;;;;;;;;;;5035043;28;20047;-70
2021/08/22 12:09:30;;;;;;;16.42;11.27;;;;;;;;;;5034251;28;20075;-70
2021/08/22 12:11:56;;;;;;;16.05;9.98;;;;;;;;;;5049779;28;20056;-69
2021/08/22 12:14:22;;;;;;;15.25;10.40;;;;;;;;;;5034354;28;20021;-69
2021/08/22 12:16:57;;;;;;;15.25;10.93;;;;;;;;;;5033993;28;20473;-69
2021/08/22 12:19:27;;;;;;;14.07;10.45;;;;;;;;;;5035134;28;20030;-70
2021/08/22 12:21:54;;;;;;;17.55;10.70;;;;;;;;;;5041028;28;20064;-71
2021/08/22 12:24:25;;;;;;;14.02;10.25;;;;;;;;;;5034958;28;20073;-71
2021/08/22 12:26:56;;;;;;;17.67;10.32;;;;;;;;;;5034063;28;20060;-67
2021/08/22 12:29:26;;;;;;;17.35;10.48;;;;;;;;;;5033250;28;20033;-68
2021/08/22 12:31:55;;;;;;;14.70;10.07;;;;;;;;;;5035570;28;20087;-70
2021/08/22 12:34:22;;;;;;;20.65;10.70;;;;;;;;;;5033862;28;20041;-69
2021/08/22 12:36:48;;;;;;;16.40;10.30;;;;;;;;;;5033488;28;20473;-69
2021/08/22 12:39:16;;;;;;;16.15;10.40;;;;;;;;;;5033238;28;20028;-70
2021/08/22 12:41:47;;;;;;;17.75;10.85;;;;;;;;;;5048282;28;20476;-70
2021/08/22 12:44:16;;;;;;;20.60;11.00;;;;;;;;;;5031134;28;20017;-69
2021/08/22 12:46:42;;;;;;;16.48;10.75;;;;;;;;;;5033463;28;20026;-69
2021/08/22 12:49:09;;;;;;;16.80;10.70;;;;;;;;;;5033372;28;20033;-67
2021/08/22 12:51:37;;;;;;;17.58;10.43;;;;;;;;;;5033180;28;20504;-67
2021/08/22 12:54:03;;;;;;;17.30;10.90;;;;;;;;;;5032564;28;20108;-67
2021/08/22 12:56:29;;;;;;;15.77;9.93;;;;;;;;;;5032322;28;20509;-66
2021/08/22 12:58:55;;;;;;;18.77;11.32;;;;;;;;;;5033019;28;20509;-69
2021/08/22 13:01:22;;;;;;;16.02;10.70;;;;;;;;;;5035273;28;20128;-68
2021/08/22 13:03:48;;;;;;;17.57;10.80;;;;;;;;;;5034328;28;20124;-68
2021/08/22 13:06:14;;;;;;;16.55;10.57;;;;;;;;;;5033309;28;20040;-67
2021/08/22 13:08:40;;;;;;;15.25;11.05;;;;;;;;;;5031636;28;20537;-67
2021/08/22 13:11:06;;;;;;;15.55;10.43;;;;;;;;;;5045681;28;20109;-67
2021/08/22 13:13:32;;;;;;;16.38;10.63;;;;;;;;;;5037804;28;20603;-69
2021/08/22 13:15:59;;;;;;;17.98;11.88;;;;;;;;;;5032806;28;20096;-69
2021/08/22 13:18:25;;;;;;;18.13;10.50;;;;;;;;;;5042379;28;20044;-68
2021/08/22 13:20:51;;;;;;;15.32;10.30;;;;;;;;;;5039497;28;20056;-70
2021/08/22 13:23:17;;;;;;;16.92;10.63;;;;;;;;;;5031848;28;20029;-67
2021/08/22 13:25:43;;;;;;;17.65;10.07;;;;;;;;;;5032452;28;20049;-69
2021/08/22 13:28:09;;;;;;;16.10;10.60;;;;;;;;;;5032484;28;20040;-70
2021/08/22 13:30:35;;;;;;;17.48;10.43;;;;;;;;;;5034844;28;20029;-69
2021/08/22 13:33:03;;;;;;;17.55;10.07;;;;;;;;;;5032590;28;20029;-71
2021/08/22 13:35:29;;;;;;;18.08;10.60;;;;;;;;;;5031611;28;20483;-68
2021/08/22 13:37:55;;;;;;;15.60;10.57;;;;;;;;;;5032463;28;20112;-68
2021/08/22 13:40:21;;;;;;;16.95;11.27;;;;;;;;;;5037355;28;20111;-69
2021/08/22 13:42:47;;;;;;;18.73;10.65;;;;;;;;;;5040156;28;20473;-68
2021/08/22 13:45:13;;;;;;;18.13;10.75;;;;;;;;;;5034331;28;20075;-69
2021/08/22 13:47:39;;;;;;;22.48;10.75;;;;;;;;;;5033134;28;20472;-70
2021/08/22 13:50:05;;;;;;;16.38;10.93;;;;;;;;;;5034672;28;20071;-69
2021/08/22 13:52:31;;;;;;;20.73;11.45;;;;;;;;;;5037790;28;20529;-71
2021/08/22 13:54:57;;;;;;;21.80;11.15;;;;;;;;;;5032109;28;20026;-71
2021/08/22 13:57:23;;;;;;;19.92;11.18;;;;;;;;;;5032125;28;20026;-70
2021/08/22 13:59:49;;;;;;;15.60;10.25;;;;;;;;;;5032158;28;20022;-70
2021/08/22 14:02:15;;;;;;;22.73;11.40;;;;;;;;;;5046484;28;20036;-70
2021/08/22 14:04:40;;;;;;;15.35;11.52;;;;;;;;;;5034204;28;20499;-70
2021/08/22 14:07:06;;;;;;;24.15;11.35;;;;;;;;;;5032142;28;20057;-70
2021/08/22 14:09:32;;;;;;;17.52;11.18;;;;;;;;;;5031480;28;20511;-70
2021/08/22 14:11:59;;;;;;;16.00;12.02;;;;;;;;;;5047073;28;20036;-70
2021/08/22 14:14:28;;;;;;;23.52;12.18;;;;;;;;;;5031861;28;20075;-70
2021/08/22 14:16:54;;;;;;;17.35;11.38;;;;;;;;;;5033833;28;20036;-70
2021/08/22 14:19:20;;;;;;;18.58;10.75;;;;;;;;;;5032910;28;20052;-70
2021/08/22 14:21:46;;;;;;;15.55;10.85;;;;;;;;;;5040548;28;20064;-69
2021/08/22 14:24:12;;;;;;;17.58;11.23;;;;;;;;;;5032117;28;20089;-68
2021/08/22 14:26:38;;;;;;;15.85;10.35;;;;;;;;;;5031071;28;20047;-68